sensor_id;sensor_type;location;lat;lon;timestamp;P1;durP1;ratioP1;P2;durP2;ratioP2
35074;SDS011;21260;34.984;32.490;2023-05-10T00:01:47;3.20;;;1.35;;
35074;SDS011;21260;34.984;32.490;2023-05-10T00:04:13;2.53;;;1.47;;
35074;SDS011;21260;34.984;32.490;2023-05-10T00:06:40;2.85;;;1.30;;
35074;SDS011;21260;34.984;32.490;2023-05-10T00:09:06;3.70;;;1.50;;
35074;SDS011;21260;34.984;32.490;2023-05-10T00:11:32;2.33;;;1.30;;
35074;SDS011;21260;34.984;32.490;2023-05-10T00:13:58;3.15;;;1.25;;
35074;SDS011;21260;34.984;32.490;2023-05-10T00:16:25;2.60;;;1.50;;
35074;SDS011;21260;34.984;32.490;2023-05-10T00:18:51;3.20;;;1.40;;
35074;SDS011;21260;34.984;32.490;2023-05-10T00:21:17;2.42;;;1.55;;
35074;SDS011;21260;34.984;32.490;2023-05-10T00:23:43;3.40;;;1.50;;
35074;SDS011;21260;34.984;32.490;2023-05-10T00:26:09;3.63;;;1.50;;
35074;SDS011;21260;34.984;32.490;2023-05-10T00:28:36;4.15;;;1.50;;
35074;SDS011;21260;34.984;32.490;2023-05-10T00:31:02;3.78;;;1.60;;
35074;SDS011;21260;34.984;32.490;2023-05-10T00:33:28;2.87;;;1.60;;
35074;SDS011;21260;34.984;32.490;2023-05-10T00:35:55;3.67;;;1.60;;
35074;SDS011;21260;34.984;32.490;2023-05-10T00:38:21;3.15;;;1.50;;
35074;SDS011;21260;34.984;32.490;2023-05-10T00:40:47;3.53;;;1.70;;
35074;SDS011;21260;34.984;32.490;2023-05-10T00:43:14;4.88;;;1.75;;
35074;SDS011;21260;34.984;32.490;2023-05-10T00:45:40;2.80;;;1.65;;
35074;SDS011;21260;34.984;32.490;2023-05-10T00:48:07;3.22;;;1.70;;
35074;SDS011;21260;34.984;32.490;2023-05-10T00:50:33;3.70;;;1.80;;
35074;SDS011;21260;34.984;32.490;2023-05-10T00:53:01;3.37;;;1.70;;
35074;SDS011;21260;34.984;32.490;2023-05-10T00:55:28;4.57;;;1.95;;
35074;SDS011;21260;34.984;32.490;2023-05-10T00:57:55;5.63;;;2.20;;
35074;SDS011;21260;34.984;32.490;2023-05-10T01:00:22;4.70;;;1.85;;
35074;SDS011;21260;34.984;32.490;2023-05-10T01:02:49;4.67;;;1.97;;
35074;SDS011;21260;34.984;32.490;2023-05-10T01:05:15;4.75;;;2.30;;
35074;SDS011;21260;34.984;32.490;2023-05-10T01:07:41;5.55;;;2.10;;
35074;SDS011;21260;34.984;32.490;2023-05-10T01:10:07;6.37;;;2.27;;
35074;SDS011;21260;34.984;32.490;2023-05-10T01:12:36;3.07;;;2.10;;
35074;SDS011;21260;34.984;32.490;2023-05-10T01:15:06;4.18;;;2.30;;
35074;SDS011;21260;34.984;32.490;2023-05-10T01:17:36;3.67;;;2.30;;
35074;SDS011;21260;34.984;32.490;2023-05-10T01:20:06;3.40;;;2.30;;
35074;SDS011;21260;34.984;32.490;2023-05-10T01:37:41;7.43;;;3.10;;
35074;SDS011;21260;34.984;32.490;2023-05-10T01:40:26;6.00;;;2.63;;
35074;SDS011;21260;34.984;32.490;2023-05-10T01:43:08;9.20;;;2.93;;
35074;SDS011;21260;34.984;32.490;2023-05-10T01:45:47;4.80;;;2.42;;
35074;SDS011;21260;34.984;32.490;2023-05-10T01:48:21;3.60;;;2.30;;
35074;SDS011;21260;34.984;32.490;2023-05-10T01:50:52;5.00;;;2.10;;
35074;SDS011;21260;34.984;32.490;2023-05-10T01:53:21;5.83;;;2.63;;
35074;SDS011;21260;34.984;32.490;2023-05-10T01:55:50;4.87;;;2.20;;
35074;SDS011;21260;34.984;32.490;2023-05-10T01:58:21;5.20;;;2.10;;
35074;SDS011;21260;34.984;32.490;2023-05-10T02:00:54;3.30;;;2.10;;
35074;SDS011;21260;34.984;32.490;2023-05-10T02:03:24;5.60;;;2.40;;
35074;SDS011;21260;34.984;32.490;2023-05-10T02:05:53;4.27;;;2.33;;
35074;SDS011;21260;34.984;32.490;2023-05-10T02:08:22;8.03;;;2.40;;
35074;SDS011;21260;34.984;32.490;2023-05-10T02:10:51;4.63;;;2.50;;
35074;SDS011;21260;34.984;32.490;2023-05-10T02:13:21;4.90;;;2.30;;
35074;SDS011;21260;34.984;32.490;2023-05-10T02:15:51;6.93;;;2.30;;
35074;SDS011;21260;34.984;32.490;2023-05-10T02:18:19;4.73;;;2.07;;
35074;SDS011;21260;34.984;32.490;2023-05-10T02:20:49;8.07;;;2.57;;
35074;SDS011;21260;34.984;32.490;2023-05-10T02:23:19;4.30;;;2.10;;
35074;SDS011;21260;34.984;32.490;2023-05-10T02:25:47;6.03;;;2.30;;
35074;SDS011;21260;34.984;32.490;2023-05-10T02:28:16;4.27;;;1.80;;
35074;SDS011;21260;34.984;32.490;2023-05-10T02:30:44;6.67;;;2.50;;
35074;SDS011;21260;34.984;32.490;2023-05-10T02:33:12;6.47;;;2.23;;
35074;SDS011;21260;34.984;32.490;2023-05-10T02:35:40;3.20;;;1.90;;
35074;SDS011;21260;34.984;32.490;2023-05-10T02:38:07;6.87;;;2.10;;
35074;SDS011;21260;34.984;32.490;2023-05-10T02:40:37;3.33;;;1.83;;
35074;SDS011;21260;34.984;32.490;2023-05-10T02:43:06;3.07;;;2.03;;
35074;SDS011;21260;34.984;32.490;2023-05-10T02:45:39;2.63;;;1.93;;
35074;SDS011;21260;34.984;32.490;2023-05-10T02:48:07;4.60;;;2.00;;
35074;SDS011;21260;34.984;32.490;2023-05-10T02:50:34;8.57;;;2.10;;
35074;SDS011;21260;34.984;32.490;2023-05-10T02:53:15;2.97;;;1.90;;
35074;SDS011;21260;34.984;32.490;2023-05-10T02:55:49;5.70;;;1.90;;
35074;SDS011;21260;34.984;32.490;2023-05-10T02:58:20;5.43;;;1.70;;
35074;SDS011;21260;34.984;32.490;2023-05-10T03:00:47;4.90;;;1.70;;
35074;SDS011;21260;34.984;32.490;2023-05-10T03:03:13;3.47;;;1.60;;
35074;SDS011;21260;34.984;32.490;2023-05-10T03:05:40;3.30;;;1.43;;
35074;SDS011;21260;34.984;32.490;2023-05-10T03:08:06;2.20;;;1.48;;
35074;SDS011;21260;34.984;32.490;2023-05-10T03:10:33;2.47;;;1.60;;
35074;SDS011;21260;34.984;32.490;2023-05-10T03:16:27;3.97;;;1.60;;
35074;SDS011;21260;34.984;32.490;2023-05-10T03:19:24;2.97;;;1.50;;
35074;SDS011;21260;34.984;32.490;2023-05-10T03:22:11;5.00;;;1.93;;
35074;SDS011;21260;34.984;32.490;2023-05-10T03:24:47;2.67;;;1.50;;
35074;SDS011;21260;34.984;32.490;2023-05-10T03:27:16;2.92;;;1.30;;
35074;SDS011;21260;34.984;32.490;2023-05-10T03:29:44;2.53;;;1.20;;
35074;SDS011;21260;34.984;32.490;2023-05-10T03:32:11;4.20;;;1.77;;
35074;SDS011;21260;34.984;32.490;2023-05-10T03:34:41;4.10;;;1.60;;
35074;SDS011;21260;34.984;32.490;2023-05-10T03:37:08;2.87;;;1.43;;
35074;SDS011;21260;34.984;32.490;2023-05-10T03:39:35;2.43;;;1.33;;
35074;SDS011;21260;34.984;32.490;2023-05-10T03:42:01;4.53;;;1.83;;
35074;SDS011;21260;34.984;32.490;2023-05-10T03:44:27;2.87;;;1.30;;
35074;SDS011;21260;34.984;32.490;2023-05-10T03:46:54;2.37;;;1.57;;
35074;SDS011;21260;34.984;32.490;2023-05-10T03:49:22;2.40;;;1.37;;
35074;SDS011;21260;34.984;32.490;2023-05-10T03:51:48;2.60;;;1.40;;
35074;SDS011;21260;34.984;32.490;2023-05-10T03:54:14;2.10;;;1.30;;
35074;SDS011;21260;34.984;32.490;2023-05-10T03:56:41;3.37;;;1.30;;
35074;SDS011;21260;34.984;32.490;2023-05-10T03:59:07;2.23;;;1.10;;
35074;SDS011;21260;34.984;32.490;2023-05-10T04:01:34;2.47;;;1.40;;
35074;SDS011;21260;34.984;32.490;2023-05-10T04:04:00;1.83;;;1.27;;
35074;SDS011;21260;34.984;32.490;2023-05-10T04:06:27;2.23;;;1.30;;
35074;SDS011;21260;34.984;32.490;2023-05-10T04:08:53;2.57;;;1.20;;
35074;SDS011;21260;34.984;32.490;2023-05-10T04:11:20;2.73;;;1.30;;
35074;SDS011;21260;34.984;32.490;2023-05-10T04:13:47;3.13;;;1.30;;
35074;SDS011;21260;34.984;32.490;2023-05-10T04:16:13;3.07;;;1.23;;
35074;SDS011;21260;34.984;32.490;2023-05-10T04:18:39;2.83;;;1.37;;
35074;SDS011;21260;34.984;32.490;2023-05-10T04:21:10;3.40;;;1.33;;
35074;SDS011;21260;34.984;32.490;2023-05-10T04:23:38;3.60;;;1.30;;
35074;SDS011;21260;34.984;32.490;2023-05-10T04:26:05;6.03;;;1.47;;
35074;SDS011;21260;34.984;32.490;2023-05-10T04:28:31;2.03;;;1.30;;
35074;SDS011;21260;34.984;32.490;2023-05-10T04:31:05;2.00;;;1.33;;
35074;SDS011;21260;34.984;32.490;2023-05-10T04:33:34;3.97;;;1.73;;
35074;SDS011;21260;34.984;32.490;2023-05-10T04:36:02;1.53;;;1.40;;
35074;SDS011;21260;34.984;32.490;2023-05-10T04:38:28;4.53;;;1.73;;
35074;SDS011;21260;34.984;32.490;2023-05-10T04:41:03;4.27;;;2.23;;
35074;SDS011;21260;34.984;32.490;2023-05-10T04:43:34;3.00;;;1.60;;
35074;SDS011;21260;34.984;32.490;2023-05-10T04:46:01;3.33;;;1.80;;
35074;SDS011;21260;34.984;32.490;2023-05-10T04:48:28;2.10;;;1.50;;
35074;SDS011;21260;34.984;32.490;2023-05-10T04:50:55;4.20;;;1.73;;
35074;SDS011;21260;34.984;32.490;2023-05-10T04:53:21;3.73;;;2.00;;
35074;SDS011;21260;34.984;32.490;2023-05-10T04:55:48;5.00;;;1.83;;
35074;SDS011;21260;34.984;32.490;2023-05-10T04:58:14;3.70;;;2.00;;
35074;SDS011;21260;34.984;32.490;2023-05-10T05:00:40;1.90;;;1.60;;
35074;SDS011;21260;34.984;32.490;2023-05-10T05:03:07;3.20;;;1.90;;
35074;SDS011;21260;34.984;32.490;2023-05-10T05:05:34;2.80;;;1.63;;
35074;SDS011;21260;34.984;32.490;2023-05-10T05:08:00;3.50;;;1.70;;
35074;SDS011;21260;34.984;32.490;2023-05-10T05:10:27;4.37;;;1.90;;
35074;SDS011;21260;34.984;32.490;2023-05-10T05:12:53;4.47;;;1.80;;
35074;SDS011;21260;34.984;32.490;2023-05-10T05:15:19;4.60;;;1.90;;
35074;SDS011;21260;34.984;32.490;2023-05-10T05:17:45;2.20;;;1.73;;
35074;SDS011;21260;34.984;32.490;2023-05-10T05:20:12;5.30;;;2.00;;
35074;SDS011;21260;34.984;32.490;2023-05-10T05:22:38;3.03;;;2.00;;
35074;SDS011;21260;34.984;32.490;2023-05-10T05:25:04;4.37;;;2.07;;
35074;SDS011;21260;34.984;32.490;2023-05-10T05:27:32;4.40;;;2.10;;
35074;SDS011;21260;34.984;32.490;2023-05-10T05:29:58;1.90;;;1.60;;
35074;SDS011;21260;34.984;32.490;2023-05-10T05:32:25;4.60;;;1.77;;
35074;SDS011;21260;34.984;32.490;2023-05-10T05:34:51;3.03;;;1.60;;
35074;SDS011;21260;34.984;32.490;2023-05-10T05:37:18;3.20;;;1.63;;
35074;SDS011;21260;34.984;32.490;2023-05-10T05:39:46;4.43;;;1.70;;
35074;SDS011;21260;34.984;32.490;2023-05-10T05:42:13;5.50;;;1.90;;
35074;SDS011;21260;34.984;32.490;2023-05-10T05:44:41;4.80;;;1.83;;
35074;SDS011;21260;34.984;32.490;2023-05-10T05:47:07;2.27;;;1.70;;
35074;SDS011;21260;34.984;32.490;2023-05-10T05:49:34;4.37;;;1.80;;
35074;SDS011;21260;34.984;32.490;2023-05-10T05:52:01;6.07;;;1.43;;
35074;SDS011;21260;34.984;32.490;2023-05-10T05:54:28;6.00;;;2.10;;
35074;SDS011;21260;34.984;32.490;2023-05-10T05:56:57;2.50;;;1.63;;
35074;SDS011;21260;34.984;32.490;2023-05-10T05:59:24;7.10;;;1.90;;
35074;SDS011;21260;34.984;32.490;2023-05-10T06:01:51;4.33;;;1.60;;
35074;SDS011;21260;34.984;32.490;2023-05-10T06:04:18;2.30;;;1.60;;
35074;SDS011;21260;34.984;32.490;2023-05-10T06:06:44;3.47;;;1.50;;
35074;SDS011;21260;34.984;32.490;2023-05-10T06:09:11;2.97;;;1.90;;
35074;SDS011;21260;34.984;32.490;2023-05-10T06:11:37;3.63;;;1.87;;
35074;SDS011;21260;34.984;32.490;2023-05-10T06:14:04;5.30;;;2.00;;
35074;SDS011;21260;34.984;32.490;2023-05-10T06:16:32;2.83;;;2.00;;
35074;SDS011;21260;34.984;32.490;2023-05-10T06:18:59;6.07;;;1.87;;
35074;SDS011;21260;34.984;32.490;2023-05-10T06:21:25;2.33;;;1.80;;
35074;SDS011;21260;34.984;32.490;2023-05-10T06:23:52;4.87;;;2.20;;
35074;SDS011;21260;34.984;32.490;2023-05-10T06:26:18;6.67;;;2.27;;
35074;SDS011;21260;34.984;32.490;2023-05-10T06:28:46;4.20;;;1.93;;
35074;SDS011;21260;34.984;32.490;2023-05-10T06:31:12;3.83;;;1.90;;
35074;SDS011;21260;34.984;32.490;2023-05-10T06:33:38;3.47;;;1.93;;
35074;SDS011;21260;34.984;32.490;2023-05-10T06:36:04;4.57;;;2.10;;
35074;SDS011;21260;34.984;32.490;2023-05-10T06:38:31;9.13;;;2.20;;
35074;SDS011;21260;34.984;32.490;2023-05-10T06:40:57;5.37;;;2.20;;
35074;SDS011;21260;34.984;32.490;2023-05-10T06:43:24;4.30;;;2.07;;
35074;SDS011;21260;34.984;32.490;2023-05-10T06:45:51;3.20;;;1.90;;
35074;SDS011;21260;34.984;32.490;2023-05-10T06:48:17;3.00;;;2.00;;
35074;SDS011;21260;34.984;32.490;2023-05-10T06:50:44;6.53;;;1.90;;
35074;SDS011;21260;34.984;32.490;2023-05-10T06:53:10;3.97;;;1.90;;
35074;SDS011;21260;34.984;32.490;2023-05-10T06:55:37;2.50;;;1.90;;
35074;SDS011;21260;34.984;32.490;2023-05-10T06:58:03;2.33;;;1.70;;
35074;SDS011;21260;34.984;32.490;2023-05-10T07:00:30;4.70;;;1.90;;
35074;SDS011;21260;34.984;32.490;2023-05-10T07:02:56;5.97;;;2.00;;
35074;SDS011;21260;34.984;32.490;2023-05-10T07:05:22;2.77;;;1.90;;
35074;SDS011;21260;34.984;32.490;2023-05-10T07:07:48;7.70;;;2.00;;
35074;SDS011;21260;34.984;32.490;2023-05-10T07:10:15;3.93;;;1.80;;
35074;SDS011;21260;34.984;32.490;2023-05-10T07:12:41;8.27;;;2.20;;
35074;SDS011;21260;34.984;32.490;2023-05-10T07:15:08;4.33;;;1.67;;
35074;SDS011;21260;34.984;32.490;2023-05-10T07:17:35;5.60;;;2.07;;
35074;SDS011;21260;34.984;32.490;2023-05-10T07:20:01;5.07;;;2.00;;
35074;SDS011;21260;34.984;32.490;2023-05-10T07:22:28;3.10;;;1.50;;
35074;SDS011;21260;34.984;32.490;2023-05-10T07:24:55;6.47;;;1.90;;
35074;SDS011;21260;34.984;32.490;2023-05-10T07:27:21;3.57;;;1.77;;
35074;SDS011;21260;34.984;32.490;2023-05-10T07:29:47;2.20;;;1.87;;
35074;SDS011;21260;34.984;32.490;2023-05-10T07:32:13;8.57;;;2.00;;
35074;SDS011;21260;34.984;32.490;2023-05-10T07:34:39;3.00;;;1.60;;
35074;SDS011;21260;34.984;32.490;2023-05-10T07:37:06;3.77;;;1.93;;
35074;SDS011;21260;34.984;32.490;2023-05-10T07:39:32;3.77;;;1.97;;
35074;SDS011;21260;34.984;32.490;2023-05-10T07:41:58;2.57;;;1.60;;
35074;SDS011;21260;34.984;32.490;2023-05-10T07:44:25;3.40;;;1.90;;
35074;SDS011;21260;34.984;32.490;2023-05-10T07:46:51;4.23;;;1.60;;
35074;SDS011;21260;34.984;32.490;2023-05-10T07:49:17;5.70;;;1.77;;
35074;SDS011;21260;34.984;32.490;2023-05-10T07:51:43;5.23;;;2.17;;
35074;SDS011;21260;34.984;32.490;2023-05-10T07:54:10;2.73;;;1.70;;
35074;SDS011;21260;34.984;32.490;2023-05-10T07:56:36;3.97;;;1.80;;
35074;SDS011;21260;34.984;32.490;2023-05-10T07:59:03;3.23;;;2.00;;
35074;SDS011;21260;34.984;32.490;2023-05-10T08:01:31;3.23;;;1.83;;
35074;SDS011;21260;34.984;32.490;2023-05-10T08:03:59;3.47;;;2.10;;
35074;SDS011;21260;34.984;32.490;2023-05-10T08:06:26;3.23;;;1.90;;
35074;SDS011;21260;34.984;32.490;2023-05-10T08:08:55;5.10;;;2.00;;
35074;SDS011;21260;34.984;32.490;2023-05-10T08:11:22;3.43;;;1.80;;
35074;SDS011;21260;34.984;32.490;2023-05-10T08:13:49;4.27;;;1.80;;
35074;SDS011;21260;34.984;32.490;2023-05-10T08:16:16;4.57;;;1.83;;
35074;SDS011;21260;34.984;32.490;2023-05-10T08:18:43;4.07;;;2.20;;
35074;SDS011;21260;34.984;32.490;2023-05-10T08:21:12;9.03;;;2.13;;
35074;SDS011;21260;34.984;32.490;2023-05-10T08:23:38;8.63;;;2.00;;
35074;SDS011;21260;34.984;32.490;2023-05-10T08:26:06;4.30;;;1.83;;
35074;SDS011;21260;34.984;32.490;2023-05-10T08:28:32;3.00;;;2.00;;
35074;SDS011;21260;34.984;32.490;2023-05-10T08:31:00;6.23;;;2.03;;
35074;SDS011;21260;34.984;32.490;2023-05-10T08:33:26;6.70;;;2.70;;
35074;SDS011;21260;34.984;32.490;2023-05-10T08:35:52;4.47;;;2.60;;
35074;SDS011;21260;34.984;32.490;2023-05-10T08:38:18;7.00;;;3.00;;
35074;SDS011;21260;34.984;32.490;2023-05-10T08:40:44;10.97;;;3.30;;
35074;SDS011;21260;34.984;32.490;2023-05-10T08:43:14;6.80;;;2.60;;
35074;SDS011;21260;34.984;32.490;2023-05-10T08:45:43;10.87;;;2.93;;
35074;SDS011;21260;34.984;32.490;2023-05-10T08:48:12;6.10;;;2.77;;
35074;SDS011;21260;34.984;32.490;2023-05-10T08:50:40;5.40;;;2.13;;
35074;SDS011;21260;34.984;32.490;2023-05-10T08:53:11;7.17;;;2.50;;
35074;SDS011;21260;34.984;32.490;2023-05-10T08:55:40;6.03;;;2.50;;
35074;SDS011;21260;34.984;32.490;2023-05-10T08:58:08;5.10;;;2.90;;
35074;SDS011;21260;34.984;32.490;2023-05-10T09:00:35;4.43;;;2.73;;
35074;SDS011;21260;34.984;32.490;2023-05-10T09:03:04;5.60;;;2.80;;
35074;SDS011;21260;34.984;32.490;2023-05-10T09:05:31;4.47;;;2.90;;
35074;SDS011;21260;34.984;32.490;2023-05-10T09:07:58;5.97;;;2.90;;
35074;SDS011;21260;34.984;32.490;2023-05-10T09:10:25;7.07;;;2.70;;
35074;SDS011;21260;34.984;32.490;2023-05-10T09:12:53;9.20;;;3.05;;
35074;SDS011;21260;34.984;32.490;2023-05-10T09:15:22;8.38;;;2.95;;
35074;SDS011;21260;34.984;32.490;2023-05-10T09:17:49;4.68;;;2.80;;
35074;SDS011;21260;34.984;32.490;2023-05-10T09:20:16;4.70;;;2.75;;
35074;SDS011;21260;34.984;32.490;2023-05-10T09:22:45;6.32;;;2.72;;
35074;SDS011;21260;34.984;32.490;2023-05-10T09:25:15;5.53;;;2.50;;
35074;SDS011;21260;34.984;32.490;2023-05-10T09:27:45;7.63;;;2.97;;
35074;SDS011;21260;34.984;32.490;2023-05-10T09:30:17;6.80;;;2.80;;
35074;SDS011;21260;34.984;32.490;2023-05-10T09:32:50;5.28;;;2.80;;
35074;SDS011;21260;34.984;32.490;2023-05-10T09:35:20;6.88;;;2.83;;
35074;SDS011;21260;34.984;32.490;2023-05-10T09:37:50;7.88;;;2.90;;
35074;SDS011;21260;34.984;32.490;2023-05-10T09:40:25;6.78;;;2.80;;
35074;SDS011;21260;34.984;32.490;2023-05-10T09:45:26;6.22;;;3.00;;
35074;SDS011;21260;34.984;32.490;2023-05-10T09:47:55;5.70;;;2.72;;
35074;SDS011;21260;34.984;32.490;2023-05-10T09:50:23;8.57;;;3.10;;
35074;SDS011;21260;34.984;32.490;2023-05-10T09:52:56;7.78;;;2.67;;
35074;SDS011;21260;34.984;32.490;2023-05-10T09:55:25;6.25;;;2.88;;
35074;SDS011;21260;34.984;32.490;2023-05-10T09:58:01;7.32;;;3.00;;
35074;SDS011;21260;34.984;32.490;2023-05-10T10:00:27;5.88;;;2.85;;
35074;SDS011;21260;34.984;32.490;2023-05-10T10:03:01;5.50;;;2.80;;
35074;SDS011;21260;34.984;32.490;2023-05-10T10:05:28;6.13;;;2.90;;
35074;SDS011;21260;34.984;32.490;2023-05-10T10:08:03;5.83;;;2.80;;
35074;SDS011;21260;34.984;32.490;2023-05-10T10:10:31;6.30;;;2.80;;
35074;SDS011;21260;34.984;32.490;2023-05-10T10:12:58;8.20;;;4.47;;
35074;SDS011;21260;34.984;32.490;2023-05-10T10:15:26;6.65;;;2.90;;
35074;SDS011;21260;34.984;32.490;2023-05-10T10:17:52;4.50;;;2.67;;
35074;SDS011;21260;34.984;32.490;2023-05-10T10:20:20;8.27;;;3.00;;
35074;SDS011;21260;34.984;32.490;2023-05-10T10:22:48;9.27;;;2.80;;
35074;SDS011;21260;34.984;32.490;2023-05-10T10:25:16;10.93;;;3.00;;
35074;SDS011;21260;34.984;32.490;2023-05-10T10:36:17;8.00;;;2.95;;
35074;SDS011;21260;34.984;32.490;2023-05-10T10:41:35;9.15;;;2.90;;
35074;SDS011;21260;34.984;32.490;2023-05-10T10:47:03;7.28;;;2.72;;
35074;SDS011;21260;34.984;32.490;2023-05-10T10:49:52;7.88;;;2.83;;
35074;SDS011;21260;34.984;32.490;2023-05-10T10:52:37;5.63;;;2.85;;
35074;SDS011;21260;34.984;32.490;2023-05-10T10:55:18;9.83;;;3.00;;
35074;SDS011;21260;34.984;32.490;2023-05-10T10:57:49;5.85;;;2.65;;
35074;SDS011;21260;34.984;32.490;2023-05-10T11:00:26;10.30;;;3.03;;
35074;SDS011;21260;34.984;32.490;2023-05-10T11:16:21;7.40;;;2.72;;
35074;SDS011;21260;34.984;32.490;2023-05-10T11:18:52;7.07;;;2.80;;
35074;SDS011;21260;34.984;32.490;2023-05-10T11:21:30;5.97;;;2.90;;
35074;SDS011;21260;34.984;32.490;2023-05-10T11:23:59;6.32;;;2.78;;
35074;SDS011;21260;34.984;32.490;2023-05-10T11:26:31;8.43;;;2.70;;
35074;SDS011;21260;34.984;32.490;2023-05-10T11:29:00;8.80;;;3.05;;
35074;SDS011;21260;34.984;32.490;2023-05-10T11:31:29;9.05;;;3.10;;
35074;SDS011;21260;34.984;32.490;2023-05-10T11:33:56;8.43;;;3.00;;
35074;SDS011;21260;34.984;32.490;2023-05-10T11:36:25;8.77;;;2.90;;
35074;SDS011;21260;34.984;32.490;2023-05-10T11:38:55;8.25;;;2.97;;
35074;SDS011;21260;34.984;32.490;2023-05-10T11:41:22;7.95;;;2.95;;
35074;SDS011;21260;34.984;32.490;2023-05-10T11:43:53;6.57;;;2.50;;
35074;SDS011;21260;34.984;32.490;2023-05-10T11:46:21;5.85;;;2.70;;
35074;SDS011;21260;34.984;32.490;2023-05-10T11:48:53;6.63;;;2.95;;
35074;SDS011;21260;34.984;32.490;2023-05-10T11:51:26;5.13;;;2.60;;
35074;SDS011;21260;34.984;32.490;2023-05-10T11:53:54;6.63;;;3.10;;
35074;SDS011;21260;34.984;32.490;2023-05-10T11:56:21;6.28;;;2.92;;
35074;SDS011;21260;34.984;32.490;2023-05-10T11:58:52;5.20;;;2.72;;
35074;SDS011;21260;34.984;32.490;2023-05-10T12:01:21;5.65;;;2.70;;
35074;SDS011;21260;34.984;32.490;2023-05-10T12:03:50;6.45;;;2.85;;
35074;SDS011;21260;34.984;32.490;2023-05-10T12:06:19;5.63;;;2.80;;
35074;SDS011;21260;34.984;32.490;2023-05-10T12:08:47;6.47;;;2.78;;
35074;SDS011;21260;34.984;32.490;2023-05-10T12:11:18;7.05;;;2.80;;
35074;SDS011;21260;34.984;32.490;2023-05-10T12:13:51;12.32;;;2.95;;
35074;SDS011;21260;34.984;32.490;2023-05-10T12:16:19;4.87;;;2.60;;
35074;SDS011;21260;34.984;32.490;2023-05-10T12:18:50;7.73;;;2.63;;
35074;SDS011;21260;34.984;32.490;2023-05-10T12:21:22;6.97;;;2.97;;
35074;SDS011;21260;34.984;32.490;2023-05-10T12:23:53;6.35;;;2.85;;
35074;SDS011;21260;34.984;32.490;2023-05-10T12:26:25;8.50;;;2.88;;
35074;SDS011;21260;34.984;32.490;2023-05-10T12:28:53;5.18;;;2.70;;
35074;SDS011;21260;34.984;32.490;2023-05-10T12:31:57;8.70;;;2.85;;
35074;SDS011;21260;34.984;32.490;2023-05-10T12:34:24;9.25;;;3.03;;
35074;SDS011;21260;34.984;32.490;2023-05-10T12:37:04;6.60;;;2.70;;
35074;SDS011;21260;34.984;32.490;2023-05-10T12:39:40;9.00;;;2.80;;
35074;SDS011;21260;34.984;32.490;2023-05-10T12:42:08;7.78;;;3.05;;
35074;SDS011;21260;34.984;32.490;2023-05-10T12:44:35;9.27;;;2.83;;
35074;SDS011;21260;34.984;32.490;2023-05-10T12:47:02;7.75;;;3.00;;
35074;SDS011;21260;34.984;32.490;2023-05-10T12:49:28;9.00;;;3.20;;
35074;SDS011;21260;34.984;32.490;2023-05-10T12:51:54;8.25;;;2.83;;
35074;SDS011;21260;34.984;32.490;2023-05-10T12:54:20;7.40;;;2.90;;
35074;SDS011;21260;34.984;32.490;2023-05-10T12:56:47;8.02;;;3.25;;
35074;SDS011;21260;34.984;32.490;2023-05-10T12:59:13;7.13;;;3.20;;
35074;SDS011;21260;34.984;32.490;2023-05-10T13:01:39;10.20;;;3.45;;
35074;SDS011;21260;34.984;32.490;2023-05-10T13:04:05;7.43;;;2.97;;
35074;SDS011;21260;34.984;32.490;2023-05-10T13:06:32;12.00;;;3.87;;
35074;SDS011;21260;34.984;32.490;2023-05-10T13:08:58;4.90;;;3.07;;
35074;SDS011;21260;34.984;32.490;2023-05-10T13:11:24;6.07;;;3.20;;
35074;SDS011;21260;34.984;32.490;2023-05-10T13:13:51;7.87;;;3.40;;
35074;SDS011;21260;34.984;32.490;2023-05-10T13:16:17;8.10;;;3.50;;
35074;SDS011;21260;34.984;32.490;2023-05-10T13:18:43;7.23;;;3.43;;
35074;SDS011;21260;34.984;32.490;2023-05-10T13:21:09;7.53;;;3.10;;
35074;SDS011;21260;34.984;32.490;2023-05-10T13:23:36;8.73;;;3.63;;
35074;SDS011;21260;34.984;32.490;2023-05-10T13:26:02;5.50;;;3.27;;
35074;SDS011;21260;34.984;32.490;2023-05-10T13:28:28;7.03;;;3.30;;
35074;SDS011;21260;34.984;32.490;2023-05-10T13:30:55;5.43;;;3.10;;
35074;SDS011;21260;34.984;32.490;2023-05-10T13:33:21;6.47;;;3.00;;
35074;SDS011;21260;34.984;32.490;2023-05-10T13:35:47;8.70;;;2.77;;
35074;SDS011;21260;34.984;32.490;2023-05-10T13:38:13;5.93;;;2.77;;
35074;SDS011;21260;34.984;32.490;2023-05-10T13:40:40;9.07;;;3.13;;
35074;SDS011;21260;34.984;32.490;2023-05-10T13:43:06;9.13;;;3.20;;
35074;SDS011;21260;34.984;32.490;2023-05-10T13:45:32;7.97;;;2.93;;
35074;SDS011;21260;34.984;32.490;2023-05-10T13:47:59;7.60;;;3.35;;
35074;SDS011;21260;34.984;32.490;2023-05-10T13:50:25;6.10;;;2.90;;
35074;SDS011;21260;34.984;32.490;2023-05-10T13:52:52;7.87;;;3.40;;
35074;SDS011;21260;34.984;32.490;2023-05-10T13:55:18;9.57;;;3.17;;
35074;SDS011;21260;34.984;32.490;2023-05-10T13:57:44;8.03;;;2.90;;
35074;SDS011;21260;34.984;32.490;2023-05-10T14:00:11;5.07;;;3.03;;
35074;SDS011;21260;34.984;32.490;2023-05-10T14:02:38;4.13;;;2.70;;
35074;SDS011;21260;34.984;32.490;2023-05-10T14:05:04;9.00;;;3.07;;
35074;SDS011;21260;34.984;32.490;2023-05-10T14:07:31;5.63;;;2.90;;
35074;SDS011;21260;34.984;32.490;2023-05-10T14:09:57;7.30;;;3.40;;
35074;SDS011;21260;34.984;32.490;2023-05-10T14:12:23;5.67;;;3.43;;
35074;SDS011;21260;34.984;32.490;2023-05-10T14:14:50;5.53;;;2.90;;
35074;SDS011;21260;34.984;32.490;2023-05-10T14:17:17;7.20;;;3.40;;
35074;SDS011;21260;34.984;32.490;2023-05-10T14:19:44;5.47;;;2.93;;
35074;SDS011;21260;34.984;32.490;2023-05-10T14:22:10;10.47;;;3.57;;
35074;SDS011;21260;34.984;32.490;2023-05-10T14:24:37;9.47;;;3.10;;
35074;SDS011;21260;34.984;32.490;2023-05-10T14:27:04;6.70;;;3.10;;
35074;SDS011;21260;34.984;32.490;2023-05-10T14:29:31;7.10;;;3.10;;
35074;SDS011;21260;34.984;32.490;2023-05-10T14:31:57;5.00;;;3.10;;
35074;SDS011;21260;34.984;32.490;2023-05-10T14:34:23;9.53;;;3.60;;
35074;SDS011;21260;34.984;32.490;2023-05-10T14:36:49;7.90;;;2.87;;
35074;SDS011;21260;34.984;32.490;2023-05-10T14:39:16;8.60;;;3.53;;
35074;SDS011;21260;34.984;32.490;2023-05-10T14:41:42;9.90;;;3.20;;
35074;SDS011;21260;34.984;32.490;2023-05-10T14:44:09;11.50;;;3.40;;
35074;SDS011;21260;34.984;32.490;2023-05-10T14:46:36;7.13;;;3.27;;
35074;SDS011;21260;34.984;32.490;2023-05-10T14:49:02;8.43;;;3.23;;
35074;SDS011;21260;34.984;32.490;2023-05-10T14:51:28;7.47;;;3.30;;
35074;SDS011;21260;34.984;32.490;2023-05-10T14:53:54;8.97;;;3.20;;
35074;SDS011;21260;34.984;32.490;2023-05-10T14:56:21;6.30;;;3.27;;
35074;SDS011;21260;34.984;32.490;2023-05-10T14:58:49;6.83;;;3.10;;
35074;SDS011;21260;34.984;32.490;2023-05-10T15:01:15;5.47;;;2.93;;
35074;SDS011;21260;34.984;32.490;2023-05-10T15:03:41;6.73;;;3.10;;
35074;SDS011;21260;34.984;32.490;2023-05-10T15:06:08;9.00;;;3.70;;
35074;SDS011;21260;34.984;32.490;2023-05-10T15:08:34;6.53;;;3.25;;
35074;SDS011;21260;34.984;32.490;2023-05-10T15:11:00;9.97;;;3.43;;
35074;SDS011;21260;34.984;32.490;2023-05-10T15:13:28;10.07;;;3.30;;
35074;SDS011;21260;34.984;32.490;2023-05-10T15:15:55;9.27;;;3.30;;
35074;SDS011;21260;34.984;32.490;2023-05-10T15:18:22;8.37;;;2.90;;
35074;SDS011;21260;34.984;32.490;2023-05-10T15:20:48;4.57;;;2.87;;
35074;SDS011;21260;34.984;32.490;2023-05-10T15:23:14;10.10;;;3.03;;
35074;SDS011;21260;34.984;32.490;2023-05-10T15:25:40;9.63;;;3.13;;
35074;SDS011;21260;34.984;32.490;2023-05-10T15:28:07;8.83;;;3.47;;